Time;durP1;ratioP1;P1;durP2;ratioP2;P2;SDS_P1;SDS_P2;PMS_P1;PMS_P2;Temp;Humidity;BMP_temperature;BMP_pressure;BME280_temperature;BME280_humidity;BME280_pressure;Samples;Min_cycle;Max_cycle;Signal;HPM_P1;HPM_P2
2022/08/05 00:01:44;;;;;;;10.50;6.93;;;;;;;;;;5295044;28;20452;-85
2022/08/05 00:04:18;;;;;;;12.80;8.10;;;;;;;;;;5299624;28;20313;-85
2022/08/05 00:06:49;;;;;;;10.73;7.90;;;;;;;;;;5303767;28;20092;-85
2022/08/05 00:09:20;;;;;;;14.43;8.35;;;;;;;;;;5282223;28;20034;-84
2022/08/05 00:11:52;;;;;;;10.77;7.57;;;;;;;;;;5279611;28;20061;-85
2022/08/05 00:14:23;;;;;;;12.60;8.33;;;;;;;;;;5270068;28;20323;-85
2022/08/05 00:16:54;;;;;;;8.07;6.70;;;;;;;;;;5277955;28;20382;-85
2022/08/05 00:19:26;;;;;;;9.48;8.38;;;;;;;;;;5288193;28;20508;-85
2022/08/05 00:21:57;;;;;;;13.27;8.05;;;;;;;;;;5286095;28;20025;-85
2022/08/05 00:24:28;;;;;;;15.02;7.65;;;;;;;;;;5290434;28;20412;-85
2022/08/05 00:27:00;;;;;;;14.65;10.07;;;;;;;;;;5276867;28;20147;-85
2022/08/05 00:29:31;;;;;;;9.70;7.30;;;;;;;;;;5268278;28;20029;-85
2022/08/05 00:32:04;;;;;;;13.68;8.68;;;;;;;;;;5295947;28;20033;-85
2022/08/05 00:34:35;;;;;;;13.52;8.07;;;;;;;;;;5278547;28;20029;-85
2022/08/05 00:37:07;;;;;;;13.20;8.00;;;;;;;;;;5267461;28;20516;-85
2022/08/05 00:39:41;;;;;;;15.93;8.60;;;;;;;;;;5288177;28;20279;-85
2022/08/05 00:42:15;;;;;;;12.73;9.90;;;;;;;;;;5276830;28;20095;-85
2022/08/05 00:44:49;;;;;;;9.00;7.70;;;;;;;;;;5267614;28;20421;-85
2022/08/05 00:47:20;;;;;;;12.85;8.30;;;;;;;;;;5274335;28;20025;-85
2022/08/05 00:49:51;;;;;;;17.67;8.60;;;;;;;;;;5257301;28;20033;-85
2022/08/05 00:52:23;;;;;;;11.98;7.95;;;;;;;;;;5266432;28;20394;-85
2022/08/05 00:54:54;;;;;;;9.80;8.20;;;;;;;;;;5266527;28;20033;-85
2022/08/05 00:57:25;;;;;;;12.15;8.90;;;;;;;;;;5262825;28;20731;-85
2022/08/05 00:59:56;;;;;;;13.77;8.83;;;;;;;;;;5299294;28;20017;-85
2022/08/05 01:02:28;;;;;;;13.77;7.93;;;;;;;;;;5275481;28;20124;-85
2022/08/05 01:04:59;;;;;;;14.23;9.33;;;;;;;;;;5272268;28;20833;-85
2022/08/05 01:07:30;;;;;;;16.83;8.38;;;;;;;;;;5261842;28;20303;-85
2022/08/05 01:10:02;;;;;;;14.25;8.63;;;;;;;;;;5267061;28;20437;-85
2022/08/05 01:12:33;;;;;;;13.70;7.70;;;;;;;;;;5275566;28;20497;-85
2022/08/05 01:15:07;;;;;;;10.97;8.07;;;;;;;;;;5278432;28;20032;-85
2022/08/05 01:17:42;;;;;;;12.23;8.02;;;;;;;;;;5262500;28;20852;-85
2022/08/05 01:20:28;;;;;;;13.07;7.45;;;;;;;;;;5270805;28;20022;-85
2022/08/05 01:23:22;;;;;;;11.27;8.35;;;;;;;;;;5283392;28;20067;-85
2022/08/05 01:25:53;;;;;;;14.48;7.63;;;;;;;;;;5286118;28;20040;-85
2022/08/05 01:28:33;;;;;;;13.63;6.97;;;;;;;;;;5264425;28;20073;-85
2022/08/05 01:31:10;;;;;;;13.43;6.85;;;;;;;;;;5284392;28;20279;-85
2022/08/05 01:34:03;;;;;;;13.07;7.00;;;;;;;;;;5287542;28;20037;-85
2022/08/05 01:36:36;;;;;;;13.68;7.03;;;;;;;;;;5288917;28;20412;-85
2022/08/05 01:39:08;;;;;;;11.38;6.85;;;;;;;;;;5267642;28;20167;-86
2022/08/05 01:41:41;;;;;;;14.45;6.65;;;;;;;;;;5285401;28;20029;-85
2022/08/05 01:44:13;;;;;;;13.70;6.32;;;;;;;;;;5292638;28;20152;-85
2022/08/05 01:46:45;;;;;;;9.85;6.72;;;;;;;;;;5290511;28;20021;-85
2022/08/05 01:49:18;;;;;;;10.25;6.07;;;;;;;;;;5305235;28;20039;-85
2022/08/05 01:51:49;;;;;;;10.10;5.82;;;;;;;;;;5301897;28;20025;-84
2022/08/05 01:54:22;;;;;;;9.07;5.63;;;;;;;;;;5297095;28;20051;-85
2022/08/05 01:56:55;;;;;;;11.60;6.43;;;;;;;;;;5315653;28;20100;-85
2022/08/05 01:59:26;;;;;;;12.85;5.75;;;;;;;;;;5300712;28;20043;-85
2022/08/05 02:01:58;;;;;;;8.07;4.82;;;;;;;;;;5299044;28;20048;-85
2022/08/05 02:04:32;;;;;;;11.27;7.05;;;;;;;;;;5309363;28;20028;-85
2022/08/05 02:07:03;;;;;;;9.60;6.45;;;;;;;;;;5313363;28;20093;-85
2022/08/05 02:09:35;;;;;;;18.20;7.13;;;;;;;;;;5312469;28;20056;-85
2022/08/05 02:12:21;;;;;;;14.40;6.80;;;;;;;;;;5307719;28;20029;-85
2022/08/05 02:14:59;;;;;;;12.68;6.68;;;;;;;;;;5306864;28;20120;-85
2022/08/05 02:17:34;;;;;;;10.57;6.57;;;;;;;;;;5316783;28;20040;-85
2022/08/05 02:20:07;;;;;;;12.10;6.03;;;;;;;;;;5296567;28;20080;-85
2022/08/05 02:22:40;;;;;;;12.98;6.38;;;;;;;;;;5292901;28;20032;-85
2022/08/05 02:25:17;;;;;;;10.18;5.43;;;;;;;;;;5310213;28;20464;-85
2022/08/05 02:27:49;;;;;;;11.13;6.65;;;;;;;;;;5301769;28;20040;-85
2022/08/05 02:30:22;;;;;;;9.88;5.88;;;;;;;;;;5294304;28;20071;-85
2022/08/05 02:32:55;;;;;;;12.38;6.57;;;;;;;;;;5283593;28;20036;-85
2022/08/05 02:35:27;;;;;;;12.00;5.72;;;;;;;;;;5296140;28;20033;-85
2022/08/05 02:37:58;;;;;;;10.98;6.95;;;;;;;;;;5297851;28;20041;-85
2022/08/05 02:40:30;;;;;;;13.55;6.90;;;;;;;;;;5298575;28;20028;-85
2022/08/05 02:43:01;;;;;;;11.73;6.68;;;;;;;;;;5281211;28;20035;-85
2022/08/05 02:45:33;;;;;;;11.55;7.65;;;;;;;;;;5290146;28;20469;-85
2022/08/05 02:48:04;;;;;;;10.23;6.00;;;;;;;;;;5302677;28;20419;-84
2022/08/05 02:50:36;;;;;;;14.18;7.22;;;;;;;;;;5318083;27;20101;-85
2022/08/05 02:53:08;;;;;;;12.05;6.45;;;;;;;;;;5305923;28;20051;-85
2022/08/05 02:55:39;;;;;;;18.52;7.00;;;;;;;;;;5305350;28;20069;-85
2022/08/05 02:58:13;;;;;;;16.33;6.90;;;;;;;;;;5299618;28;20052;-85
2022/08/05 03:00:44;;;;;;;11.85;6.90;;;;;;;;;;5287491;28;20197;-85
2022/08/05 03:03:17;;;;;;;9.65;5.47;;;;;;;;;;5286704;28;20115;-85
2022/08/05 03:05:49;;;;;;;12.32;7.13;;;;;;;;;;5275601;28;20060;-85
2022/08/05 03:08:21;;;;;;;16.55;7.13;;;;;;;;;;5264489;28;20162;-84
2022/08/05 03:10:52;;;;;;;11.65;6.78;;;;;;;;;;5261396;28;20017;-85
2022/08/05 03:13:24;;;;;;;12.68;7.15;;;;;;;;;;5266265;28;20443;-85
2022/08/05 03:15:55;;;;;;;16.33;7.37;;;;;;;;;;5261977;28;20594;-85
2022/08/05 03:18:26;;;;;;;13.37;7.37;;;;;;;;;;5280304;28;20401;-85
2022/08/05 03:20:57;;;;;;;11.52;7.38;;;;;;;;;;5274443;28;20774;-85
2022/08/05 03:23:29;;;;;;;11.73;6.40;;;;;;;;;;5289885;28;20099;-85
2022/08/05 03:26:00;;;;;;;9.95;6.53;;;;;;;;;;5270998;28;20025;-85
2022/08/05 03:28:32;;;;;;;12.00;6.57;;;;;;;;;;5255115;28;20503;-85
2022/08/05 03:31:03;;;;;;;12.18;6.20;;;;;;;;;;5260660;28;20089;-85
2022/08/05 03:33:35;;;;;;;11.43;6.35;;;;;;;;;;5259399;28;20029;-85
2022/08/05 03:36:06;;;;;;;13.52;6.32;;;;;;;;;;5273916;28;20560;-85
2022/08/05 03:38:41;;;;;;;9.45;5.88;;;;;;;;;;5262145;28;20029;-85
2022/08/05 03:41:14;;;;;;;12.77;6.88;;;;;;;;;;5267777;28;20029;-85
2022/08/05 03:43:45;;;;;;;11.27;5.88;;;;;;;;;;5274724;28;20076;-85
2022/08/05 03:46:16;;;;;;;19.80;7.60;;;;;;;;;;5273982;28;20025;-85
2022/08/05 03:48:47;;;;;;;9.43;6.43;;;;;;;;;;5283670;28;20275;-85
2022/08/05 03:51:21;;;;;;;10.83;6.87;;;;;;;;;;5293470;28;20032;-85
2022/08/05 03:53:55;;;;;;;10.38;6.70;;;;;;;;;;5271835;28;20033;-85
2022/08/05 03:56:35;;;;;;;9.88;6.25;;;;;;;;;;5287344;28;20568;-85
2022/08/05 03:59:09;;;;;;;11.77;8.00;;;;;;;;;;5271727;28;20121;-84
2022/08/05 04:01:43;;;;;;;14.10;7.50;;;;;;;;;;5297672;28;20021;-85
2022/08/05 04:04:15;;;;;;;13.57;6.50;;;;;;;;;;5272838;28;20533;-85
2022/08/05 04:06:46;;;;;;;11.25;7.30;;;;;;;;;;5274210;28;20074;-85
2022/08/05 04:09:18;;;;;;;13.30;7.18;;;;;;;;;;5273201;28;20039;-85
2022/08/05 04:11:49;;;;;;;12.25;7.35;;;;;;;;;;5280449;28;20029;-85
2022/08/05 04:14:24;;;;;;;17.27;7.47;;;;;;;;;;5281312;28;20035;-86
2022/08/05 04:16:55;;;;;;;13.38;6.47;;;;;;;;;;5283043;28;20060;-85
2022/08/05 04:19:27;;;;;;;10.13;7.30;;;;;;;;;;5286350;28;20063;-85
2022/08/05 04:21:58;;;;;;;12.55;7.78;;;;;;;;;;5277781;28;20513;-84
2022/08/05 04:24:29;;;;;;;12.98;8.07;;;;;;;;;;5293191;28;20021;-84
2022/08/05 04:27:01;;;;;;;17.35;8.38;;;;;;;;;;5293997;28;20405;-85
2022/08/05 04:29:32;;;;;;;15.55;7.68;;;;;;;;;;5280023;28;20116;-85
2022/08/05 04:32:04;;;;;;;10.23;7.53;;;;;;;;;;5270686;28;20781;-85
2022/08/05 04:34:38;;;;;;;13.88;7.95;;;;;;;;;;5257277;28;20065;-84
2022/08/05 04:37:10;;;;;;;15.25;7.28;;;;;;;;;;5268505;28;20485;-85
2022/08/05 04:39:41;;;;;;;10.43;6.35;;;;;;;;;;5287913;28;20028;-84
2022/08/05 04:42:12;;;;;;;17.13;7.87;;;;;;;;;;5269302;28;20127;-85
2022/08/05 04:44:43;;;;;;;14.23;7.43;;;;;;;;;;5271921;28;20025;-85
2022/08/05 04:47:14;;;;;;;12.67;7.63;;;;;;;;;;5268639;28;20032;-84
2022/08/05 04:49:46;;;;;;;14.55;7.43;;;;;;;;;;5279109;28;20268;-85
2022/08/05 04:52:17;;;;;;;12.27;7.50;;;;;;;;;;5283548;28;20032;-84
2022/08/05 04:54:48;;;;;;;13.35;7.55;;;;;;;;;;5282167;28;20268;-85
2022/08/05 04:57:19;;;;;;;12.70;7.53;;;;;;;;;;5293117;28;20040;-84
2022/08/05 04:59:51;;;;;;;11.05;7.97;;;;;;;;;;5274839;28;20115;-85
2022/08/05 05:02:22;;;;;;;13.73;7.97;;;;;;;;;;5292516;28;20032;-85
2022/08/05 05:04:53;;;;;;;12.07;8.38;;;;;;;;;;5258502;28;20288;-85
2022/08/05 05:07:24;;;;;;;10.80;7.03;;;;;;;;;;5269686;28;20045;-84
2022/08/05 05:09:56;;;;;;;13.30;6.78;;;;;;;;;;5279144;28;20028;-85
2022/08/05 05:12:27;;;;;;;11.82;7.80;;;;;;;;;;5289934;28;20029;-85
2022/08/05 05:15:02;;;;;;;11.35;6.53;;;;;;;;;;5289370;28;20017;-84
2022/08/05 05:17:38;;;;;;;11.23;5.28;;;;;;;;;;5268965;28;20092;-85
2022/08/05 05:20:10;;;;;;;8.70;5.05;;;;;;;;;;5268090;28;20037;-85
2022/08/05 05:22:41;;;;;;;9.45;5.45;;;;;;;;;;5269160;28;20401;-85
2022/08/05 05:25:13;;;;;;;11.87;5.20;;;;;;;;;;5268701;28;20029;-85
2022/08/05 05:27:52;;;;;;;8.43;5.38;;;;;;;;;;5268452;28;20295;-85
2022/08/05 05:30:23;;;;;;;8.05;5.53;;;;;;;;;;5269433;28;20021;-85
2022/08/05 05:32:55;;;;;;;10.07;5.47;;;;;;;;;;5286173;28;20029;-85
2022/08/05 05:35:32;;;;;;;8.73;5.28;;;;;;;;;;5278914;28;20036;-85
2022/08/05 05:38:10;;;;;;;8.07;5.72;;;;;;;;;;5269900;28;20036;-86
2022/08/05 05:40:42;;;;;;;11.52;6.20;;;;;;;;;;5276601;28;20029;-86
2022/08/05 05:43:13;;;;;;;13.35;6.38;;;;;;;;;;5286707;28;20032;-84
2022/08/05 05:45:45;;;;;;;9.95;6.35;;;;;;;;;;5281932;28;20033;-85
2022/08/05 05:48:16;;;;;;;15.25;6.22;;;;;;;;;;5304937;28;20067;-85
2022/08/05 05:50:51;;;;;;;10.20;5.75;;;;;;;;;;5280272;28;20024;-87
2022/08/05 06:00:11;;;;;;;8.70;5.28;;;;;;;;;;5228023;28;20079;-85
2022/08/05 06:02:54;;;;;;;9.15;5.63;;;;;;;;;;5254372;28;20514;-84
2022/08/05 06:05:50;;;;;;;14.55;5.75;;;;;;;;;;5259503;28;20033;-84
2022/08/05 06:08:22;;;;;;;9.60;5.22;;;;;;;;;;5269080;28;20083;-85
2022/08/05 06:14:16;;;;;;;10.05;4.68;;;;;;;;;;5294758;28;20445;-84
2022/08/05 06:17:38;;;;;;;10.85;4.47;;;;;;;;;;5294280;28;20059;-84
2022/08/05 06:20:08;;;;;;;7.05;4.40;;;;;;;;;;5244021;28;20033;-85
2022/08/05 06:22:40;;;;;;;7.20;4.50;;;;;;;;;;5293445;28;20051;-85
2022/08/05 06:25:27;;;;;;;;;;;;;;;;;;;;;
2022/08/05 06:28:02;;;;;;;8.07;4.18;;;;;;;;;;5295990;28;41736;-86
2022/08/05 06:30:33;;;;;;;11.30;4.32;;;;;;;;;;5283390;28;20044;-85
2022/08/05 06:33:40;;;;;;;;;;;;;;;;;;;;;
2022/08/05 06:36:20;;;;;;;6.03;4.18;;;;;;;;;;5272500;28;40868;-86
2022/08/05 06:39:26;;;;;;;11.32;4.13;;;;;;;;;;5268261;28;20037;-85
2022/08/05 06:42:01;;;;;;;11.18;3.75;;;;;;;;;;5271332;28;20445;-85
2022/08/05 06:44:40;;;;;;;9.88;3.50;;;;;;;;;;5276150;28;20060;-86
2022/08/05 06:47:20;;;;;;;10.93;4.03;;;;;;;;;;5259093;28;20041;-85
2022/08/05 06:50:25;;;;;;;8.10;3.50;;;;;;;;;;5266201;28;20473;-84
2022/08/05 06:53:17;;;;;;;11.77;3.85;;;;;;;;;;5282942;28;20039;-84
2022/08/05 06:56:04;;;;;;;7.85;3.42;;;;;;;;;;5270304;28;20044;-85
2022/08/05 06:58:42;;;;;;;7.65;3.75;;;;;;;;;;5281119;28;20055;-85
2022/08/05 07:01:21;;;;;;;10.52;3.85;;;;;;;;;;5268961;28;20481;-85
2022/08/05 07:03:55;;;;;;;9.25;3.40;;;;;;;;;;5272832;28;20048;-85
2022/08/05 07:06:27;;;;;;;9.30;3.53;;;;;;;;;;5260602;28;20099;-86
2022/08/05 07:09:00;;;;;;;6.53;3.20;;;;;;;;;;5284326;28;20018;-85
2022/08/05 07:11:37;;;;;;;10.25;3.42;;;;;;;;;;5280331;28;20532;-85
2022/08/05 07:17:19;;;;;;;8.73;3.55;;;;;;;;;;5278013;28;20420;-85
2022/08/05 07:20:12;;;;;;;5.97;3.35;;;;;;;;;;5314074;28;20445;-86
2022/08/05 07:26:13;;;;;;;7.57;3.45;;;;;;;;;;5244387;28;20042;-86
2022/08/05 07:28:49;;;;;;;7.07;2.95;;;;;;;;;;5287462;28;20037;-87
2022/08/05 07:31:27;;;;;;;6.65;2.72;;;;;;;;;;5316237;28;20373;-85
2022/08/05 07:34:04;;;;;;;7.95;2.33;;;;;;;;;;5270366;28;20053;-85
2022/08/05 07:37:11;;;;;;;6.80;2.45;;;;;;;;;;5267628;28;20025;-86
2022/08/05 07:39:48;;;;;;;7.40;2.63;;;;;;;;;;5260474;28;20083;-85
2022/08/05 07:42:22;;;;;;;8.98;2.50;;;;;;;;;;5266885;28;20110;-86
2022/08/05 07:44:56;;;;;;;5.32;1.92;;;;;;;;;;5247258;28;20026;-86
2022/08/05 07:47:30;;;;;;;4.28;1.85;;;;;;;;;;5266528;28;20086;-85
2022/08/05 07:50:16;;;;;;;5.60;1.63;;;;;;;;;;5268315;28;20051;-85
2022/08/05 07:52:53;;;;;;;4.78;1.90;;;;;;;;;;5285361;28;20025;-86
2022/08/05 07:55:30;;;;;;;4.80;1.80;;;;;;;;;;5266478;28;20052;-86
2022/08/05 07:58:12;;;;;;;4.10;1.77;;;;;;;;;;5270618;28;20119;-86
2022/08/05 08:00:47;;;;;;;5.32;1.60;;;;;;;;;;5278636;28;20032;-85
2022/08/05 08:03:18;;;;;;;4.55;1.50;;;;;;;;;;5268219;28;20075;-86
2022/08/05 08:05:52;;;;;;;4.22;1.73;;;;;;;;;;5262228;28;20079;-85
2022/08/05 08:08:33;;;;;;;9.93;2.70;;;;;;;;;;5284234;28;20531;-86
2022/08/05 08:11:10;;;;;;;4.45;1.77;;;;;;;;;;5286258;28;20378;-86
2022/08/05 08:13:53;;;;;;;6.03;1.50;;;;;;;;;;5277011;28;20091;-85
2022/08/05 08:16:24;;;;;;;2.53;1.40;;;;;;;;;;5266668;28;20072;-86
2022/08/05 08:21:59;;;;;;;5.60;1.38;;;;;;;;;;5295952;28;20020;-86
2022/08/05 08:24:40;;;;;;;3.05;1.30;;;;;;;;;;5267583;28;20071;-86
2022/08/05 08:27:23;;;;;;;3.53;1.48;;;;;;;;;;5266699;28;20505;-86
2022/08/05 08:29:57;;;;;;;4.72;1.60;;;;;;;;;;5284441;28;20037;-85
2022/08/05 08:32:36;;;;;;;4.40;1.40;;;;;;;;;;5273235;28;20033;-85
2022/08/05 08:35:24;;;;;;;5.57;1.55;;;;;;;;;;5326868;28;20032;-85
2022/08/05 08:37:57;;;;;;;3.58;1.20;;;;;;;;;;5320996;28;20033;-86
2022/08/05 08:40:35;;;;;;;3.50;1.40;;;;;;;;;;5307679;28;20013;-86
2022/08/05 08:43:17;;;;;;;5.00;1.63;;;;;;;;;;5291105;28;20029;-86
2022/08/05 08:45:55;;;;;;;5.78;1.50;;;;;;;;;;5266935;28;20029;-86
2022/08/05 08:48:30;;;;;;;5.25;1.60;;;;;;;;;;5270602;28;20033;-85
2022/08/05 08:51:10;;;;;;;4.78;1.30;;;;;;;;;;5284756;28;20037;-86
2022/08/05 08:53:50;;;;;;;3.10;1.38;;;;;;;;;;5270007;28;20040;-86
2022/08/05 08:56:26;;;;;;;6.05;1.73;;;;;;;;;;5275675;28;20114;-86
2022/08/05 08:58:59;;;;;;;5.32;1.35;;;;;;;;;;5289180;28;20033;-86
2022/08/05 09:01:35;;;;;;;4.43;1.40;;;;;;;;;;5270060;28;20036;-86
2022/08/05 09:04:07;;;;;;;;;;;;;;;;;;5271286;28;20033;-86
2022/08/05 09:06:49;;;;;;;4.28;1.50;;;;;;;;;;5285111;28;19967;-86
2022/08/05 09:09:30;;;;;;;2.60;1.20;;;;;;;;;;5269195;28;20021;-86
2022/08/05 09:12:05;;;;;;;2.60;1.33;;;;;;;;;;5269090;28;20040;-86
2022/08/05 09:15:02;;;;;;;3.42;1.13;;;;;;;;;;5267602;28;20096;-86
2022/08/05 09:17:50;;;;;;;5.45;1.40;;;;;;;;;;5280890;28;20041;-86
2022/08/05 09:20:45;;;;;;;4.53;1.52;;;;;;;;;;5268426;28;20379;-86
2022/08/05 09:23:25;;;;;;;6.47;1.67;;;;;;;;;;5262567;28;20121;-86
2022/08/05 09:26:19;;;;;;;3.10;1.42;;;;;;;;;;5281042;28;20028;-86
2022/08/05 09:29:03;;;;;;;;;;;;;;;;;;;;;
2022/08/05 09:31:57;;;;;;;3.47;1.15;;;;;;;;;;5277488;28;40731;-86
2022/08/05 09:34:52;;;;;;;3.75;1.33;;;;;;;;;;5279713;28;20033;-86
2022/08/05 09:37:44;;;;;;;4.57;1.23;;;;;;;;;;5271839;28;20543;-86
2022/08/05 09:40:51;;;;;;;;;;;;;;;;;;;;;
2022/08/05 09:43:48;;;;;;;3.22;1.02;;;;;;;;;;5279010;28;40420;-86
2022/08/05 09:46:25;;;;;;;2.67;1.08;;;;;;;;;;5256638;28;20128;-86
2022/08/05 09:49:08;;;;;;;4.68;0.90;;;;;;;;;;5279506;28;20558;-86
2022/08/05 09:51:44;;;;;;;2.65;1.25;;;;;;;;;;5279472;28;20470;-86
2022/08/05 09:54:42;;;;;;;3.50;1.30;;;;;;;;;;5260389;28;20052;-86
2022/08/05 09:57:29;;;;;;;3.83;0.93;;;;;;;;;;5239038;28;20091;-86
2022/08/05 10:00:23;;;;;;;4.45;1.20;;;;;;;;;;5277128;28;20148;-86
2022/08/05 10:02:54;;;;;;;3.03;0.90;;;;;;;;;;5253969;28;20039;-85
2022/08/05 10:05:31;;;;;;;2.75;0.82;;;;;;;;;;5277657;28;20409;-85
2022/08/05 10:08:23;;;;;;;1.60;0.60;;;;;;;;;;5261786;28;20700;-85
2022/08/05 10:10:58;;;;;;;2.70;0.73;;;;;;;;;;5277926;28;20033;-85
2022/08/05 10:13:47;;;;;;;;;;;;;;;;;;;;;
2022/08/05 10:16:33;;;;;;;5.65;0.80;;;;;;;;;;5279211;28;40224;-86
2022/08/05 10:19:07;;;;;;;;;;;;;;;;;;5259777;28;20033;-86
2022/08/05 10:21:44;;;;;;;1.73;0.65;;;;;;;;;;5267165;28;19917;-85
2022/08/05 10:24:22;;;;;;;1.17;0.57;;;;;;;;;;5263826;28;20463;-86
2022/08/05 10:26:56;;;;;;;2.08;0.77;;;;;;;;;;5263219;28;20033;-85
2022/08/05 10:29:47;;;;;;;4.03;0.70;;;;;;;;;;5280491;28;20032;-85
2022/08/05 10:32:18;;;;;;;1.90;0.70;;;;;;;;;;5261848;28;20082;-86
2022/08/05 10:34:54;;;;;;;2.15;0.43;;;;;;;;;;5262487;28;20568;-85
2022/08/05 10:37:28;;;;;;;;;;;;;;;;;;5261272;28;20041;-85
2022/08/05 10:40:03;;;;;;;2.45;0.80;;;;;;;;;;5277560;28;20004;-85
2022/08/05 10:42:38;;;;;;;1.35;0.55;;;;;;;;;;5259323;28;20124;-85
2022/08/05 10:45:10;;;;;;;3.33;0.80;;;;;;;;;;5278365;28;20080;-85
2022/08/05 10:47:43;;;;;;;2.88;0.80;;;;;;;;;;5257519;28;20025;-85
2022/08/05 10:50:15;;;;;;;1.88;0.50;;;;;;;;;;5277342;28;20020;-85
2022/08/05 10:52:58;;;;;;;3.88;0.60;;;;;;;;;;5280015;28;20079;-85
2022/08/05 10:55:31;;;;;;;2.00;0.60;;;;;;;;;;5260062;28;20035;-85
2022/08/05 10:58:09;;;;;;;1.40;0.50;;;;;;;;;;5260728;28;20040;-85
2022/08/05 11:00:47;;;;;;;2.10;0.60;;;;;;;;;;5279051;28;20037;-85
2022/08/05 11:03:18;;;;;;;2.25;0.50;;;;;;;;;;5263365;28;20032;-86
2022/08/05 11:06:08;;;;;;;3.47;0.60;;;;;;;;;;5267673;28;20041;-85
2022/08/05 11:08:59;;;;;;;4.72;0.55;;;;;;;;;;5263755;28;20041;-85
2022/08/05 11:11:34;;;;;;;1.48;0.43;;;;;;;;;;5260314;28;20037;-86
2022/08/05 11:14:11;;;;;;;2.83;0.47;;;;;;;;;;5273549;28;20037;-86
2022/08/05 11:17:23;;;;;;;1.25;0.43;;;;;;;;;;5259074;28;20143;-86
2022/08/05 11:19:57;;;;;;;1.80;0.50;;;;;;;;;;5266759;28;20041;-86
2022/08/05 11:22:41;;;;;;;2.13;0.60;;;;;;;;;;5272050;28;20038;-86
2022/08/05 11:25:36;;;;;;;1.13;0.40;;;;;;;;;;5263081;28;20041;-86
2022/08/05 11:28:10;;;;;;;3.28;0.60;;;;;;;;;;5280008;28;20064;-85
2022/08/05 11:31:00;;;;;;;4.43;0.52;;;;;;;;;;5297524;28;20044;-85
2022/08/05 11:33:59;;;;;;;3.50;0.75;;;;;;;;;;5293433;28;20384;-86
2022/08/05 11:36:49;;;;;;;2.13;0.98;;;;;;;;;;5271184;28;20041;-85
2022/08/05 11:39:40;;;;;;;4.10;0.60;;;;;;;;;;5266794;28;20130;-86
2022/08/05 11:42:17;;;;;;;4.43;0.45;;;;;;;;;;5287731;28;20033;-86
2022/08/05 11:45:15;;;;;;;2.65;0.85;;;;;;;;;;5272013;28;20037;-85
2022/08/05 11:47:50;;;;;;;1.30;0.52;;;;;;;;;;5268526;28;20025;-86
2022/08/05 11:50:25;;;;;;;2.22;0.50;;;;;;;;;;5284790;28;20029;-85
2022/08/05 11:53:02;;;;;;;4.05;0.70;;;;;;;;;;5275024;28;20099;-86
2022/08/05 11:55:37;;;;;;;2.13;0.57;;;;;;;;;;5267815;28;20037;-86
2022/08/05 11:58:08;;;;;;;4.90;0.63;;;;;;;;;;5263263;28;20063;-85
2022/08/05 12:00:44;;;;;;;3.28;0.57;;;;;;;;;;5273905;28;20024;-85
2022/08/05 12:03:21;;;;;;;4.05;0.73;;;;;;;;;;5285008;28;20420;-85
2022/08/05 12:06:06;;;;;;;3.13;0.63;;;;;;;;;;5252497;28;20425;-86
2022/08/05 12:08:52;;;;;;;2.33;0.60;;;;;;;;;;5280234;28;20037;-85
2022/08/05 12:11:27;;;;;;;4.97;0.60;;;;;;;;;;5286115;28;20040;-86
2022/08/05 12:14:01;;;;;;;3.92;0.57;;;;;;;;;;5266333;28;20029;-86
2022/08/05 12:16:35;;;;;;;5.20;0.80;;;;;;;;;;5268896;28;20022;-86
2022/08/05 12:19:25;;;;;;;0.98;0.50;;;;;;;;;;5287192;28;20036;-85
2022/08/05 12:22:06;;;;;;;4.15;0.55;;;;;;;;;;5266574;28;20037;-85
2022/08/05 12:24:42;;;;;;;4.03;0.50;;;;;;;;;;5266893;28;20037;-86
2022/08/05 12:27:15;;;;;;;;;;;;;;;;;;5267229;28;20071;-86
2022/08/05 12:30:00;;;;;;;2.53;0.60;;;;;;;;;;5285919;28;19913;-86
2022/08/05 12:32:34;;;;;;;7.20;0.80;;;;;;;;;;5259063;28;20048;-85
2022/08/05 12:35:18;;;;;;;1.70;0.53;;;;;;;;;;5248641;28;20341;-86
2022/08/05 12:38:00;;;;;;;3.70;0.40;;;;;;;;;;5249352;28;20049;-86
2022/08/05 12:40:39;;;;;;;1.55;0.40;;;;;;;;;;5247740;28;20060;-87
2022/08/05 12:43:11;;;;;;;2.47;0.40;;;;;;;;;;5275764;28;20045;-86
2022/08/05 12:46:08;;;;;;;1.38;0.45;;;;;;;;;;5259342;28;20055;-86
2022/08/05 12:49:16;;;;;;;2.72;0.50;;;;;;;;;;5246957;28;20079;-86
2022/08/05 12:52:06;;;;;;;1.80;0.63;;;;;;;;;;5198930;28;20549;-86
2022/08/05 12:57:44;;;;;;;1.92;0.50;;;;;;;;;;5287343;28;20048;-86
2022/08/05 13:00:55;;;;;;;4.90;0.43;;;;;;;;;;5278767;28;20087;-86
2022/08/05 13:07:19;;;;;;;4.40;0.52;;;;;;;;;;5188211;28;20211;-86
2022/08/05 13:10:31;;;;;;;3.10;0.47;;;;;;;;;;5175617;28;20175;-87
2022/08/05 13:13:44;;;;;;;;;;;;;;;;;;;;;
2022/08/05 13:20:05;;;;;;;2.42;0.40;;;;;;;;;;5174075;28;20611;-87
2022/08/05 13:41:55;;;;;;;0.82;0.25;;;;;;;35.59;26.13;101920.34;6299708;22;6665245;-85
2022/08/05 13:44:44;;;;;;;0.90;0.38;;;;;;;34.82;26.89;101918.72;6581726;22;20095;-85
2022/08/05 13:47:41;;;;;;;3.17;0.45;;;;;;;32.56;31.23;101909.72;6581808;22;20341;-85
2022/08/05 13:50:39;;;;;;;1.05;0.45;;;;;;;30.72;42.21;101934.00;6582534;22;20010;-85
2022/08/05 13:53:27;;;;;;;1.45;0.50;;;;;;;28.66;64.91;101909.00;6582523;22;20071;-85
2022/08/05 13:56:10;;;;;;;1.60;0.50;;;;;;;27.47;43.41;101912.38;6554341;22;20003;-85
2022/08/05 13:59:11;;;;;;;2.03;0.57;;;;;;;26.82;71.75;101938.31;6554829;22;19996;-85
2022/08/05 14:02:01;;;;;;;3.80;0.52;;;;;;;26.27;53.04;101903.41;6582870;22;20053;-85
2022/08/05 14:07:52;;;;;;;1.48;0.30;;;;;;;28.25;47.70;101941.72;6582427;22;20004;-85
2022/08/05 14:10:30;;;;;;;1.63;0.30;;;;;;;27.41;45.79;101944.28;6553225;22;20014;-85
2022/08/05 14:13:12;;;;;;;2.40;0.68;;;;;;;26.64;48.02;101930.91;6552623;22;20003;-85
2022/08/05 14:15:49;;;;;;;1.70;0.50;;;;;;;26.22;54.58;101936.03;6553161;22;20007;-85
2022/08/05 14:18:26;;;;;;;3.88;0.40;;;;;;;25.62;70.21;101925.41;6579644;22;20082;-85
2022/08/05 14:20:58;;;;;;;1.85;0.30;;;;;;;25.37;55.66;101933.47;6581205;22;20026;-84
2022/08/05 14:23:40;;;;;;;3.40;0.40;;;;;;;25.16;81.58;101934.53;6582556;22;20058;-86
2022/08/05 14:26:11;;;;;;;1.80;0.50;;;;;;;26.19;60.57;101958.34;6583701;22;19999;-86
2022/08/05 14:28:45;;;;;;;1.60;0.40;;;;;;;26.48;52.07;101936.91;6555878;22;20048;-85
2022/08/05 14:31:26;;;;;;;3.25;0.50;;;;;;;26.77;73.35;101951.84;6582824;22;20006;-85
2022/08/05 14:34:07;;;;;;;2.67;0.60;;;;;;;26.40;49.21;101948.94;6580980;22;20003;-86
2022/08/05 14:36:50;;;;;;;1.85;0.43;;;;;;;26.23;50.26;101957.69;6580714;22;20019;-86
2022/08/05 14:39:32;;;;;;;4.57;0.50;;;;;;;26.29;66.38;101938.75;6554179;22;19999;-86
2022/08/05 14:42:34;;;;;;;2.08;0.60;;;;;;;26.35;69.18;101963.31;6576301;22;20011;-86
2022/08/05 14:45:07;;;;;;;0.73;0.63;;;;;;;26.06;94.85;101947.50;6574097;22;20014;-86
2022/08/05 14:47:48;;;;;;;1.77;0.57;;;;;;;25.89;76.63;101966.28;6547149;22;20074;-86
2022/08/05 14:51:05;;;;;;;2.20;0.60;;;;;;;25.87;83.94;101980.16;6547422;22;20306;-87
2022/08/05 14:53:50;;;;;;;3.40;0.50;;;;;;;25.82;91.12;101969.88;6544869;22;20000;-86
2022/08/05 14:56:32;;;;;;;5.05;0.70;;;;;;;25.66;76.70;101970.34;6546082;22;20007;-85
2022/08/05 14:59:12;;;;;;;3.08;1.15;;;;;;;25.35;89.42;101969.22;6546468;22;20043;-86
2022/08/05 15:01:49;;;;;;;3.67;0.63;;;;;;;25.28;86.90;101980.13;6546719;22;20133;-86
2022/08/05 15:04:39;;;;;;;2.22;0.57;;;;;;;25.27;100.00;101950.31;6546473;22;19995;-86
2022/08/05 15:07:35;;;;;;;5.85;0.65;;;;;;;25.18;86.85;101978.88;6546130;22;20004;-87
2022/08/05 15:10:07;;;;;;;3.22;0.70;;;;;;;24.91;98.11;101968.81;6546181;22;20338;-87
2022/08/05 15:12:38;;;;;;;4.43;0.60;;;;;;;24.68;86.90;101971.97;6548581;22;19996;-88
2022/08/05 15:15:17;;;;;;;2.40;0.60;;;;;;;24.48;86.81;101943.81;6575485;22;20085;-86
2022/08/05 15:17:59;;;;;;;3.47;0.60;;;;;;;24.43;85.01;101981.75;6568448;22;19992;-85
2022/08/05 15:20:34;;;;;;;1.55;0.60;;;;;;;24.27;100.00;101966.63;6603538;22;20042;-86
2022/08/05 15:23:09;;;;;;;1.67;0.50;;;;;;;24.01;100.00;101964.69;6577504;22;20004;-85
2022/08/05 15:25:51;;;;;;;2.42;0.40;;;;;;;23.87;93.80;101985.59;6576642;22;19992;-86
2022/08/05 15:28:22;;;;;;;3.17;0.45;;;;;;;23.84;100.00;101994.16;6602690;22;20000;-85
2022/08/05 15:30:59;;;;;;;2.47;0.50;;;;;;;23.97;93.97;101951.47;6604143;22;20010;-87
2022/08/05 15:33:33;;;;;;;4.60;0.70;;;;;;;24.30;93.50;101979.88;6554488;22;20015;-87
2022/08/05 15:36:20;;;;;;;2.80;0.73;;;;;;;24.31;85.73;101979.63;6575513;22;20012;-87
2022/08/05 15:38:55;;;;;;;0.85;0.60;;;;;;;24.35;94.66;101960.97;6578006;22;20000;-87
2022/08/05 15:41:26;;;;;;;2.70;0.55;;;;;;;24.13;91.93;101972.03;6549354;22;20007;-87
2022/08/05 15:44:00;;;;;;;2.22;0.60;;;;;;;24.00;80.40;102003.88;6547516;22;20057;-87
2022/08/05 15:46:38;;;;;;;2.72;0.47;;;;;;;23.63;83.46;102009.53;6546952;22;20040;-86
2022/08/05 15:49:09;;;;;;;2.38;0.80;;;;;;;23.54;93.50;101988.94;6547170;22;20003;-86
2022/08/05 15:51:41;;;;;;;2.10;0.50;;;;;;;23.24;100.00;101994.63;6547670;22;20003;-87
2022/08/05 15:54:17;;;;;;;2.78;0.60;;;;;;;23.11;100.00;102003.56;6574198;22;19988;-87
2022/08/05 15:56:52;;;;;;;5.45;0.85;;;;;;;23.22;97.34;102002.16;6547773;22;20054;-86
2022/08/05 15:59:24;;;;;;;4.35;0.60;;;;;;;23.11;99.38;101991.84;6547265;22;20761;-86
2022/08/05 16:01:59;;;;;;;1.52;0.55;;;;;;;23.01;99.30;102012.00;6547659;22;20007;-87